Amsterdam, New York
Current Conditions -  °F | °C
As of 12:55 AM on Monday 20 Oct 2014 (Local Time) from KNY0 Reporting Station
Scattered Clouds Scattered Clouds  
Wind Chill: 25°   Ceiling: Unl
Heat Index: 31°   Visibility: 10mi
Dew Point: 28°   Wind: 6mph
Humidity: 88%   Direction: 220°SW
Pressure: 30.01"   Gusts: NA
Location:  42.94°N, 74.19°W
Report Text: KNY0 200455Z AUTO 22005KT 10SM SCT036 00/M02 A3001 RMK AO2 T10051023
Loading
Personal Weather Stations






























Interactive Weather Map
Tropical Storm Tracking
New forecast layout! Learn more

10-Day Weather Forecast

Advertisements
Track Severe Weather on mobile